Latest Coastal Weather Observations for Learmonth

IDW60701

Issued at 9:42 am WST Tuesday 25 June 2024 (issued every 10 minutes, with the page automatically refreshed every 10 minutes)

About coastal observations | Map of coastal stations | Coastal observations for WA | Marine services | Other Formats
Station Details ID: 005007 Name: LEARMONTH AIRPORT Lat: -22.24 Lon: 114.10 Height: 5.0 m
Data from the previous 72 hours. | See also: Recent months at Learmonth
Date/Time
WST
Wind Sea
Height
m
Swell Vis
km
Cloud Weather Temp
°C
Press
MSL
hPa
Rain since
9am
mm
Dir  Spd
kts
Gust
kts
Height
m
Period
s
Dir
25/09:30am ENE 4 6 - - - - 10 Clear - 23.0 1014.5 0.0
25/09:00am CALM 0 0 - - - - 10 Mostly clear - 21.4 1014.3 0.0
25/08:37am CALM 0 3 - - - - - - - 20.2 - 0.0
25/08:35am SSW 1 3 - - - - 10 Partly cloudy - 19.8 1014.4 0.0
25/08:30am SSW 2 3 - - - - 10 Partly cloudy - 19.3 1014.4 0.0
25/08:00am SSW 3 4 - - - - 8 Partly cloudy - 16.7 1014.0 0.0
25/07:54am SSW 3 4 - - - - 3 Partly cloudy - 16.5 1014.0 0.0
25/07:30am SW 4 5 - - - - 2 Partly cloudy - 15.4 1013.9 0.0
25/07:24am SSW 4 5 - - - - 5 Partly cloudy - 15.2 1013.8 0.0
25/07:00am SSW 3 4 - - - - 10 Partly cloudy - 14.8 1013.6 0.0
25/06:30am SSW 1 7 - - - - - - - 14.7 - 0.0
25/06:00am W 4 5 - - - - - Mostly clear - 15.4 1013.3 0.0
25/05:30am WSW 3 4 - - - - 10 - - 15.2 1013.2 0.0
25/05:00am WSW 3 4 - - - - 10 - - 15.6 1013.3 0.0
25/04:30am WSW 4 5 - - - - 10 - - 16.0 1013.5 0.0
25/04:00am WSW 5 5 - - - - - - - 16.2 1013.4 0.0
25/03:30am W 5 5 - - - - 10 - - 16.6 1013.6 0.0
25/03:00am WSW 5 5 - - - - 10 Partly cloudy - 16.3 1013.9 0.0
25/02:30am SSE 4 5 - - - - 10 Partly cloudy - 15.7 1014.2 0.0
25/02:00am S 5 7 - - - - 10 Partly cloudy - 15.7 1014.4 0.0
25/01:30am S 5 6 - - - - - - - 16.3 - 0.0
25/01:00am SSE 8 10 - - - - - - - 16.7 1014.7 0.0
25/12:30am CALM 0 0 - - - - 10 Partly cloudy - 16.9 1014.7 0.0
25/12:00am NW 4 4 - - - - 10 Partly cloudy - 17.1 1014.9 0.0
 
Date/Time
WST
Wind Sea
Height
m
Swell Vis
km
Cloud Weather Temp
°C
Press
MSL
hPa
Rain since
9am
mm
Dir  Spd
kts
Gust
kts
Height
m
Period
s
Dir
24/11:30pm CALM 0 0 - - - - 10 Partly cloudy - 17.5 1015.1 0.0
24/11:00pm CALM 0 0 - - - - 10 - - 17.7 1015.4 0.0
24/10:30pm CALM 0 0 - - - - 10 - - 18.3 1015.4 0.0
24/10:00pm NW 3 4 - - - - 10 - - 19.8 1015.4 0.0
24/09:30pm NW 3 4 - - - - 10 - - 19.6 1015.7 0.0
24/09:00pm CALM 0 0 - - - - 10 - - 19.8 1015.9 0.0
24/08:30pm NW 3 4 - - - - 10 - - 21.5 1015.8 0.0
24/08:00pm NW 5 7 - - - - 10 Partly cloudy - 22.2 1015.8 0.0
24/07:30pm NW 5 6 - - - - - - - 21.2 - 0.0
24/07:00pm NW 5 6 - - - - - - - 21.6 1015.5 0.0
24/06:30pm NW 5 6 - - - - 10 - - 21.6 1015.4 0.0
24/06:00pm N 6 6 - - - - - Mostly clear - 21.8 1015.3 0.0
24/05:30pm NNE 7 8 - - - - - - - 23.2 - 0.0
24/05:00pm N 9 12 - - - - 10 Partly cloudy - 23.9 1015.1 0.0
24/04:30pm NNE 9 11 - - - - 10 Partly cloudy - 24.4 1015.1 0.0
24/04:00pm NNE 9 11 - - - - 10 Partly cloudy - 24.4 1015.2 0.0
24/03:30pm NNE 8 10 - - - - 10 Partly cloudy - 25.2 1015.5 0.0
24/03:00pm NE 7 9 - - - - - Mostly clear - 25.8 1015.6 0.0
24/02:30pm NE 5 9 - - - - - - - 26.3 - 0.0
24/02:00pm ENE 5 8 - - - - 10 Partly cloudy - 25.6 1016.0 0.0
24/01:30pm E 5 7 - - - - - - - 25.0 - 0.0
24/01:00pm ESE 6 11 - - - - - - - 25.1 1016.9 0.0
24/12:30pm ESE 7 10 - - - - 10 Partly cloudy - 25.1 1017.3 0.0
24/12:00pm SE 8 11 - - - - 10 Partly cloudy - 24.6 1017.8 0.0
24/11:30am SE 8 14 - - - - - - - 24.1 - 0.0
24/11:00am SE 9 13 - - - - 10 Partly cloudy - 23.7 1018.6 0.0
24/10:30am SE 9 13 - - - - 10 - - 23.0 1019.0 0.0
24/10:00am SE 7 10 - - - - 10 - - 22.6 1019.2 0.0
24/09:30am SSE 8 11 - - - - - - - 22.0 - 0.0
24/09:00am S 6 8 - - - - 10 - - 20.5 1019.0 0.0
24/08:30am SW 6 8 - - - - 10 - - 19.3 1018.9 0.0
24/08:00am WSW 5 6 - - - - 10 - - 17.6 1018.6 0.0
24/07:30am SW 7 8 - - - - 10 - - 16.1 1018.3 0.0
24/07:00am WSW 6 7 - - - - - - - 15.6 1018.0 0.0
24/06:30am SW 7 8 - - - - 10 - - 15.8 1017.6 0.0
24/06:00am SW 7 8 - - - - 10 - - 16.0 1017.2 0.0
24/05:30am SW 7 8 - - - - 10 - - 16.2 1017.1 0.0
24/05:00am SW 7 8 - - - - - - - 16.3 1017.0 0.0
24/04:30am WSW 7 7 - - - - 10 Partly cloudy - 16.4 1017.1 0.0
24/04:00am SW 7 8 - - - - 10 Partly cloudy - 16.7 1017.1 0.0
24/03:30am SW 7 8 - - - - 10 Partly cloudy - 16.8 1017.3 0.0
24/03:00am WSW 7 8 - - - - 10 - - 16.6 1017.6 0.0
24/02:30am WSW 7 8 - - - - 10 - - 17.2 1017.7 0.0
24/02:00am SW 8 9 - - - - 10 - - 17.6 1017.9 0.0
24/01:30am WSW 8 8 - - - - 10 - - 17.5 1018.1 0.0
24/01:00am SW 8 9 - - - - 10 - - 17.5 1018.3 0.0
24/12:30am SW 7 8 - - - - 10 - - 17.9 1018.4 0.0
24/12:00am SW 7 8 - - - - 10 - - 18.2 1018.6 0.0
 
Date/Time
WST
Wind Sea
Height
m
Swell Vis
km
Cloud Weather Temp
°C
Press
MSL
hPa
Rain since
9am
mm
Dir  Spd
kts
Gust
kts
Height
m
Period
s
Dir
23/11:30pm SSW 8 9 - - - - 10 Partly cloudy - 18.7 1018.6 0.0
23/11:00pm SW 8 9 - - - - 10 - - 19.1 1018.7 0.0
23/10:30pm SW 8 9 - - - - 10 Partly cloudy - 19.6 1018.7 0.0
23/10:00pm SW 7 8 - - - - 10 Partly cloudy - 20.1 1018.8 0.0
23/09:30pm SW 8 9 - - - - 10 Partly cloudy - 20.4 1018.7 0.0
23/09:00pm SW 7 9 - - - - 10 Partly cloudy - 20.9 1018.6 0.0
23/08:30pm SW 6 7 - - - - 10 Cloudy - 21.2 1018.5 0.0
23/08:00pm WSW 6 8 - - - - 10 Cloudy - 21.6 1018.4 0.0
23/07:30pm WSW 7 9 - - - - 10 Partly cloudy - 22.3 1018.2 0.0
23/07:00pm SW 9 11 - - - - 10 Cloudy - 22.7 1018.1 0.0
23/06:30pm SW 7 9 - - - - 10 Partly cloudy - 23.1 1017.8 0.0
23/06:00pm N 6 6 - - - - 10 Partly cloudy - 22.2 1017.4 0.0
23/05:30pm N 5 6 - - - - 10 - - 24.0 1017.2 0.0
23/05:00pm N 5 6 - - - - 10 - - 25.8 1017.3 0.0
23/04:30pm NNE 5 7 - - - - - - - 26.6 - 0.0
23/04:00pm NE 5 6 - - - - 10 - - 27.2 1017.2 0.0
23/03:30pm ENE 5 6 - - - - - - - 27.4 - 0.0
23/03:00pm NE 5 7 - - - - 10 - - 27.2 1017.5 0.0
23/02:30pm NE 5 6 - - - - - - - 27.2 - 0.0
23/02:00pm ENE 4 6 - - - - - - - 26.4 1017.9 0.0
23/01:30pm ENE 3 5 - - - - - - - 25.4 - 0.0
23/01:00pm ENE 5 7 - - - - 10 Partly cloudy - 25.3 1018.7 0.0
23/12:30pm ENE 3 5 - - - - 10 Cloudy - 25.5 1019.2 0.0
23/12:00pm ENE 4 5 - - - - 10 Mostly cloudy - 25.5 1019.5 0.0
23/11:30am E 5 7 - - - - 10 Partly cloudy - 23.9 1019.9 0.0
23/11:00am SE 6 7 - - - - 10 Partly cloudy - 23.8 1020.4 0.0
23/10:30am SE 6 8 - - - - 10 Partly cloudy - 23.3 1020.5 0.0
23/10:00am SE 4 6 - - - - 10 Partly cloudy - 22.1 1020.7 0.0
23/09:30am SSE 5 8 - - - - - - - 22.3 - 0.0
23/09:00am S 4 5 - - - - 10 - - 21.2 1020.3 0.0
23/08:30am SW 4 5 - - - - - - - 20.0 - 0.0
23/08:00am WSW 5 7 - - - - 10 Cloudy - 18.5 1020.0 0.0
23/07:30am WSW 6 6 - - - - 10 Partly cloudy - 17.2 1019.6 0.0
23/07:00am WSW 5 6 - - - - 10 Partly cloudy - 16.6 1019.2 0.0
23/06:30am SW 7 8 - - - - 10 - - 16.9 1019.1 0.0
23/06:00am SSW 7 8 - - - - 10 - - 17.0 1018.9 0.0
23/05:30am SW 7 7 - - - - 10 - - 17.4 1018.6 0.0
23/05:00am SW 7 7 - - - - 10 - - 17.6 1018.5 0.0
23/04:30am SW 6 7 - - - - 10 Partly cloudy - 18.3 1018.6 0.0
23/04:00am WSW 6 7 - - - - 10 Cloudy - 19.0 1018.8 0.0
23/03:30am WSW 4 4 - - - - 10 Cloudy - 19.5 1018.7 0.0
23/03:00am WSW 4 4 - - - - 10 Mostly cloudy - 19.6 1018.9 0.0
23/02:30am WSW 4 4 - - - - 10 Cloudy - 19.8 1019.0 0.0
23/02:00am WSW 3 5 - - - - 10 Cloudy - 19.6 1019.2 0.0
23/01:30am WSW 4 6 - - - - 10 Partly cloudy - 19.3 1019.3 0.0
23/01:00am SW 1 3 - - - - 10 Cloudy - 19.3 1019.3 0.0
23/12:30am SSW 5 6 - - - - 10 Cloudy - 19.2 1019.3 0.0
23/12:00am SW 6 7 - - - - 10 Mostly cloudy - 19.2 1019.2 0.0
 
Date/Time
WST
Wind Sea
Height
m
Swell Vis
km
Cloud Weather Temp
°C
Press
MSL
hPa
Rain since
9am
mm
Dir  Spd
kts
Gust
kts
Height
m
Period
s
Dir
22/11:30pm SW 5 6 - - - - 10 Cloudy - 19.1 1019.2 0.0
22/11:00pm SW 5 6 - - - - 10 Cloudy - 19.0 1019.4 0.0
22/10:30pm WSW 4 5 - - - - 10 Cloudy - 19.0 1019.2 0.0
22/10:00pm SSW 5 6 - - - - 10 Partly cloudy - 18.4 1019.2 0.0
22/09:30pm S 5 6 - - - - - - - 19.0 - 0.0
22/09:00pm W 4 6 - - - - 10 Partly cloudy - 19.8 1018.9 0.0
22/08:30pm WNW 2 3 - - - - 10 Cloudy - 20.7 1018.8 0.0
22/08:00pm WNW 3 4 - - - - 10 Cloudy - 21.0 1018.7 0.0
22/07:30pm CALM 0 0 - - - - 10 Cloudy - 21.1 1018.6 0.0
22/07:00pm CALM 0 3 - - - - 10 Cloudy - 21.5 1018.5 0.0
22/06:30pm NNE 3 4 - - - - 10 Partly cloudy - 21.3 1018.3 0.0
22/06:00pm NNE 3 3 - - - - 10 - - 22.1 1018.0 0.0
22/05:30pm NE 5 6 - - - - 10 - - 23.1 1017.9 0.0
22/05:00pm NE 7 8 - - - - 10 - - 23.9 1017.5 0.0
22/04:30pm NE 6 8 - - - - 10 - - 24.4 1017.5 0.0
22/04:00pm NE 7 10 - - - - 10 - - 24.6 1017.2 0.0
22/03:30pm NE 9 11 - - - - 10 - - 24.8 1017.3 0.0
22/03:00pm NE 9 11 - - - - 10 - - 25.0 1017.3 0.0
22/02:30pm NNE 9 11 - - - - 10 - - 24.7 1017.4 0.0
22/02:00pm NNE 8 11 - - - - 10 - - 24.9 1017.7 0.0
22/01:30pm NE 9 11 - - - - 10 - - 24.8 1018.0 0.0
22/01:00pm NE 9 11 - - - - 10 - - 24.6 1018.4 0.0
22/12:30pm NE 10 13 - - - - - - - 24.1 1018.9 0.0
22/12:00pm NE 10 12 - - - - 10 - - 24.1 1019.5 0.0
22/11:30am NE 10 13 - - - - 10 - - 24.2 1019.9 0.0
22/11:00am NE 12 15 - - - - 10 - - 23.8 1020.1 0.0
22/10:30am ENE 11 15 - - - - 10 - - 23.6 1020.4 0.0
22/10:00am ENE 12 16 - - - - 10 - - 23.3 1020.3 0.0

Other formats

Comma delimited format used in spreadsheet applications
http://www.bom.gov.au/fwo/IDW60701/IDW60701.94302.axf

JavaScript Object Notation format (JSON) in row-major order
http://www.bom.gov.au/fwo/IDW60701/IDW60701.94302.json

Data quality

Most of these data are generated automatically and are frequently updated. Quality checks on data are not normally performed. It is possible for incorrect values to appear. Refer to information at About Latest Weather Observations and please check the disclaimer before using these data.